Time;durP1;ratioP1;P1;durP2;ratioP2;P2;SDS_P1;SDS_P2;PMS_P1;PMS_P2;Temp;Humidity;BMP_temperature;BMP_pressure;BME280_temperature;BME280_humidity;BME280_pressure;Samples;Min_cycle;Max_cycle;Signal;HPM_P1;HPM_P2
2021/01/31 00:00:01;;;;;;;7.87;3.20;;;5.10;99.90;;;;;;2057244;28;20187;-63
2021/01/31 00:01:03;;;;;;;7.75;2.40;;;5.10;99.90;;;;;;2056688;28;20669;-63
2021/01/31 00:02:03;;;;;;;7.75;2.53;;;5.00;99.90;;;;;;2057038;28;20186;-63
2021/01/31 00:03:15;;;;;;;6.93;2.40;;;5.00;99.90;;;;;;2057187;28;20193;-63
2021/01/31 00:04:16;;;;;;;10.15;2.80;;;5.00;99.90;;;;;;2056817;28;20198;-63
2021/01/31 00:05:18;;;;;;;9.57;2.50;;;5.00;99.90;;;;;;2056845;28;20209;-63
2021/01/31 00:06:19;;;;;;;12.05;3.03;;;5.00;99.90;;;;;;2057369;28;20241;-64
2021/01/31 00:07:20;;;;;;;7.87;2.13;;;5.00;99.90;;;;;;2057032;28;20268;-63
2021/01/31 00:08:23;;;;;;;11.40;2.50;;;5.00;99.90;;;;;;2057219;28;20179;-63
2021/01/31 00:09:24;;;;;;;10.27;2.30;;;5.00;99.90;;;;;;2057299;28;20190;-63
2021/01/31 00:10:31;;;;;;;9.23;2.20;;;5.00;99.90;;;;;;2055626;28;20662;-63
2021/01/31 00:11:31;;;;;;;8.68;1.92;;;5.00;99.90;;;;;;2056615;28;20233;-64
2021/01/31 00:12:32;;;;;;;7.90;2.33;;;5.00;99.90;;;;;;2057245;28;20657;-63
2021/01/31 00:13:33;;;;;;;10.68;2.35;;;5.00;99.90;;;;;;2057094;28;20217;-63
2021/01/31 00:14:34;;;;;;;9.43;2.10;;;4.90;99.90;;;;;;2057171;28;20649;-63
2021/01/31 00:15:39;;;;;;;8.00;2.43;;;4.90;99.90;;;;;;2057229;28;20190;-64
2021/01/31 00:16:40;;;;;;;9.07;2.20;;;4.90;99.90;;;;;;2057205;28;20170;-65
2021/01/31 00:17:41;;;;;;;10.80;2.00;;;5.00;99.90;;;;;;2056238;28;20206;-63
2021/01/31 00:18:42;;;;;;;9.23;2.47;;;5.00;99.90;;;;;;2056636;28;20186;-63
2021/01/31 00:19:43;;;;;;;6.73;2.23;;;5.00;99.90;;;;;;2056760;28;20658;-63
2021/01/31 00:20:49;;;;;;;8.23;2.10;;;5.00;99.90;;;;;;2057062;28;20792;-64
2021/01/31 00:21:49;;;;;;;8.77;2.60;;;5.00;99.90;;;;;;2056919;28;20626;-63
2021/01/31 00:22:50;;;;;;;10.03;2.30;;;5.00;99.90;;;;;;2057121;28;20193;-62
2021/01/31 00:23:51;;;;;;;6.87;2.53;;;5.00;99.90;;;;;;2056985;28;20180;-62
2021/01/31 00:24:54;;;;;;;8.73;2.10;;;5.00;99.90;;;;;;2056968;28;20422;-62
2021/01/31 00:25:55;;;;;;;8.75;2.25;;;5.00;99.90;;;;;;2056987;28;20245;-62
2021/01/31 00:26:57;;;;;;;6.47;2.03;;;5.00;99.90;;;;;;2057114;28;20211;-61
2021/01/31 00:27:58;;;;;;;5.15;2.50;;;5.00;99.90;;;;;;2056174;28;20221;-63
2021/01/31 00:28:58;;;;;;;7.13;2.13;;;5.10;99.90;;;;;;2056547;28;20190;-62
2021/01/31 00:29:59;;;;;;;8.60;2.53;;;5.00;99.90;;;;;;2056864;28;20569;-65
2021/01/31 00:31:00;;;;;;;9.27;2.40;;;5.00;99.90;;;;;;2056414;28;20205;-62
2021/01/31 00:32:01;;;;;;;6.10;2.20;;;5.00;99.90;;;;;;2056906;28;20236;-61
2021/01/31 00:33:06;;;;;;;8.45;2.38;;;5.00;99.90;;;;;;2057075;28;20190;-64
2021/01/31 00:34:07;;;;;;;10.10;2.50;;;5.00;99.90;;;;;;2057021;28;20206;-64
2021/01/31 00:35:08;;;;;;;9.57;2.33;;;4.90;99.90;;;;;;2057060;28;20399;-66
2021/01/31 00:36:09;;;;;;;11.82;2.55;;;4.90;99.90;;;;;;2056690;28;20210;-62
2021/01/31 00:37:10;;;;;;;9.63;2.37;;;4.90;99.90;;;;;;2056748;28;20224;-64
2021/01/31 00:38:14;;;;;;;10.53;2.90;;;4.90;99.90;;;;;;2056238;28;20186;-64
2021/01/31 00:39:16;;;;;;;7.03;2.05;;;4.90;99.90;;;;;;2056452;28;20674;-64
2021/01/31 00:40:18;;;;;;;8.02;2.25;;;4.90;99.90;;;;;;2056893;28;20269;-64
2021/01/31 00:41:19;;;;;;;7.20;2.30;;;4.90;99.90;;;;;;2056334;28;20193;-64
2021/01/31 00:42:21;;;;;;;7.97;2.30;;;4.80;99.90;;;;;;2056820;28;20575;-64
2021/01/31 00:43:22;;;;;;;7.43;2.33;;;4.90;99.90;;;;;;2056832;28;20185;-64
2021/01/31 00:44:23;;;;;;;7.67;2.53;;;4.80;99.90;;;;;;2056835;28;20187;-62
2021/01/31 00:45:27;;;;;;;6.67;2.40;;;4.80;99.90;;;;;;2056894;28;20525;-62
2021/01/31 00:46:32;;;;;;;7.35;2.67;;;4.80;99.90;;;;;;2056259;28;20665;-63
2021/01/31 00:47:32;;;;;;;5.30;2.13;;;4.80;99.90;;;;;;2056089;28;20314;-62
2021/01/31 00:48:33;;;;;;;8.97;2.27;;;4.80;99.90;;;;;;2056876;28;20194;-63
2021/01/31 00:49:34;;;;;;;9.57;3.00;;;4.80;99.90;;;;;;2056865;28;20189;-63
2021/01/31 00:50:37;;;;;;;4.83;2.37;;;4.80;99.90;;;;;;2056852;28;20221;-63
2021/01/31 00:51:38;;;;;;;9.57;3.00;;;4.70;99.90;;;;;;2055710;28;20229;-63
2021/01/31 00:52:39;;;;;;;9.27;3.10;;;4.70;99.90;;;;;;2056120;28;20689;-63
2021/01/31 00:53:39;;;;;;;8.70;2.77;;;4.70;99.90;;;;;;2056867;28;20204;-63
2021/01/31 00:54:40;;;;;;;11.00;2.77;;;4.70;99.90;;;;;;2056805;28;20330;-63
2021/01/31 00:55:41;;;;;;;7.23;2.30;;;4.70;99.90;;;;;;2056807;28;20294;-63
2021/01/31 00:56:42;;;;;;;7.45;2.67;;;4.70;99.90;;;;;;2056946;28;20198;-62
2021/01/31 00:57:42;;;;;;;9.27;2.70;;;4.60;99.90;;;;;;2056797;28;20686;-63
2021/01/31 00:58:45;;;;;;;7.20;2.60;;;4.60;99.90;;;;;;2056824;28;20273;-63
2021/01/31 00:59:45;;;;;;;6.85;2.63;;;4.50;99.90;;;;;;2056833;28;20523;-63
2021/01/31 01:00:46;;;;;;;11.97;2.70;;;4.50;99.90;;;;;;2055973;28;20310;-63
2021/01/31 01:01:47;;;;;;;8.77;2.87;;;4.40;99.90;;;;;;2056560;28;20187;-63
2021/01/31 01:02:48;;;;;;;7.10;2.80;;;4.40;99.90;;;;;;2057088;28;20225;-63
2021/01/31 01:03:49;;;;;;;8.30;2.60;;;4.40;99.90;;;;;;2056817;28;20218;-63
2021/01/31 01:04:50;;;;;;;7.63;2.60;;;4.40;99.90;;;;;;2057040;28;20173;-63
2021/01/31 01:05:51;;;;;;;6.65;2.30;;;4.40;99.90;;;;;;2056887;28;20285;-62
2021/01/31 01:06:51;;;;;;;7.63;2.57;;;4.30;99.90;;;;;;2056948;28;20175;-62
2021/01/31 01:07:53;;;;;;;8.23;2.87;;;4.30;99.90;;;;;;2056956;28;20734;-62
2021/01/31 01:08:53;;;;;;;9.02;2.92;;;4.30;99.90;;;;;;2056821;28;20260;-63
2021/01/31 01:09:54;;;;;;;7.33;2.90;;;4.20;99.90;;;;;;2056780;28;20272;-63
2021/01/31 01:10:55;;;;;;;8.03;3.17;;;4.30;99.90;;;;;;2056215;28;20174;-62
2021/01/31 01:11:56;;;;;;;10.83;2.73;;;4.30;99.90;;;;;;2056786;28;20197;-62
2021/01/31 01:12:57;;;;;;;12.33;3.70;;;4.20;99.90;;;;;;2056774;28;20182;-62
2021/01/31 01:13:58;;;;;;;9.77;3.50;;;4.20;99.90;;;;;;2056797;28;20182;-62
2021/01/31 01:14:59;;;;;;;13.17;3.67;;;4.20;99.90;;;;;;2056729;28;20645;-62
2021/01/31 01:16:00;;;;;;;9.35;3.05;;;4.20;99.90;;;;;;2056862;28;20185;-62
2021/01/31 01:17:02;;;;;;;8.30;2.77;;;4.20;99.90;;;;;;2056735;28;20189;-62
2021/01/31 01:18:03;;;;;;;8.80;3.40;;;4.20;99.90;;;;;;2056835;28;20316;-62
2021/01/31 01:19:04;;;;;;;10.98;3.75;;;4.20;99.90;;;;;;2056877;28;20198;-62
2021/01/31 01:20:07;;;;;;;10.18;3.22;;;4.20;99.90;;;;;;2056513;28;20189;-63
2021/01/31 01:21:08;;;;;;;8.38;2.83;;;4.20;99.90;;;;;;2056057;28;20202;-62
2021/01/31 01:22:09;;;;;;;6.67;2.80;;;4.20;99.90;;;;;;2056465;28;20570;-62
2021/01/31 01:23:09;;;;;;;11.10;3.40;;;4.20;99.90;;;;;;2056708;28;20234;-63
2021/01/31 01:24:10;;;;;;;11.53;3.60;;;4.20;99.90;;;;;;2056556;28;20189;-62
2021/01/31 01:25:13;;;;;;;13.80;3.87;;;4.10;99.90;;;;;;2056621;28;20644;-62
2021/01/31 01:26:14;;;;;;;10.55;3.28;;;4.20;99.90;;;;;;2056755;28;20704;-63
2021/01/31 01:27:14;;;;;;;7.50;3.20;;;4.10;99.90;;;;;;2056797;28;20213;-62
2021/01/31 01:28:15;;;;;;;9.20;3.83;;;4.10;99.90;;;;;;2056739;28;20668;-62
2021/01/31 01:29:17;;;;;;;13.88;3.17;;;4.10;99.90;;;;;;2056803;28;20266;-62
2021/01/31 01:30:24;;;;;;;12.98;3.35;;;4.00;99.90;;;;;;2056148;28;20192;-62
2021/01/31 01:31:25;;;;;;;5.55;2.60;;;4.00;99.90;;;;;;2055639;28;20253;-62
2021/01/31 01:32:26;;;;;;;13.83;4.67;;;3.90;99.90;;;;;;2056743;28;20194;-62
2021/01/31 01:33:27;;;;;;;10.40;4.17;;;3.90;99.90;;;;;;2056799;28;20182;-62
2021/01/31 01:34:27;;;;;;;9.70;4.13;;;3.80;99.90;;;;;;2056622;28;20182;-62
2021/01/31 01:35:29;;;;;;;20.07;5.50;;;3.80;99.90;;;;;;2056794;28;20788;-62
2021/01/31 01:36:30;;;;;;;11.13;4.18;;;3.80;99.90;;;;;;2056555;28;20193;-62
2021/01/31 01:37:30;;;;;;;30.77;6.30;;;3.80;99.90;;;;;;2056517;28;20646;-62
2021/01/31 01:38:31;;;;;;;65.37;8.37;;;3.70;99.90;;;;;;2056604;28;20196;-63
2021/01/31 01:39:31;;;;;;;83.80;9.57;;;3.70;99.90;;;;;;2056601;28;20189;-62
2021/01/31 01:40:37;;;;;;;91.73;12.10;;;3.60;99.90;;;;;;2056581;28;20192;-62
2021/01/31 01:41:45;;;;;;;50.35;10.43;;;3.60;99.90;;;;;;2056200;28;20205;-62
2021/01/31 01:42:46;;;;;;;38.17;9.15;;;3.60;99.90;;;;;;2056685;28;20203;-63
2021/01/31 01:43:53;;;;;;;42.27;8.27;;;3.60;99.90;;;;;;2056648;28;20375;-62
2021/01/31 01:44:54;;;;;;;31.73;7.90;;;3.60;99.90;;;;;;2056839;28;20209;-62
2021/01/31 01:46:17;;;;;;;80.67;10.30;;;3.50;99.90;;;;;;2056735;28;20179;-62
2021/01/31 01:47:23;;;;;;;38.10;7.07;;;3.50;99.90;;;;;;2056445;28;20291;-62
2021/01/31 01:48:23;;;;;;;55.17;9.48;;;3.50;99.90;;;;;;2056130;28;20327;-63
2021/01/31 01:49:33;;;;;;;116.17;14.83;;;3.50;99.90;;;;;;2048324;29;20186;-63
2021/01/31 01:50:41;;;;;;;207.15;22.50;;;3.50;99.90;;;;;;2056112;28;20672;-61
2021/01/31 01:51:59;;;;;;;176.23;19.30;;;3.60;99.90;;;;;;2056195;28;20667;-62
2021/01/31 01:53:00;;;;;;;179.05;18.73;;;3.60;99.90;;;;;;2055887;28;20304;-62
2021/01/31 01:54:03;;;;;;;111.43;15.98;;;3.60;99.90;;;;;;2056102;28;20211;-62
2021/01/31 01:55:12;;;;;;;36.83;8.45;;;3.60;99.90;;;;;;2056594;28;20545;-62
2021/01/31 01:56:36;;;;;;;83.53;11.98;;;3.60;99.90;;;;;;2055980;28;20191;-62
2021/01/31 01:58:11;;;;;;;39.25;6.40;;;3.50;99.90;;;;;;2051303;28;20213;-63
2021/01/31 01:59:13;;;;;;;21.55;7.20;;;3.40;99.90;;;;;;2048416;28;20226;-63
2021/01/31 02:00:16;;;;;;;31.33;8.32;;;3.40;99.90;;;;;;2048125;28;20190;-63
2021/01/31 02:01:20;;;;;;;42.03;9.50;;;3.40;99.90;;;;;;2047641;28;20195;-63
2021/01/31 02:02:30;;;;;;;28.73;8.07;;;3.40;99.90;;;;;;2048543;28;20535;-63
2021/01/31 02:03:35;;;;;;;38.42;7.97;;;3.40;99.90;;;;;;2049120;28;20185;-63
2021/01/31 02:04:36;;;;;;;89.03;11.38;;;3.40;99.90;;;;;;2048555;28;20171;-63
2021/01/31 02:05:38;;;;;;;74.57;9.43;;;3.40;99.90;;;;;;2054228;28;20673;-64
2021/01/31 02:06:39;;;;;;;53.97;9.27;;;3.40;99.90;;;;;;2050092;28;20223;-63
2021/01/31 02:07:41;;;;;;;93.77;9.40;;;3.40;99.90;;;;;;2048367;28;20213;-63
2021/01/31 02:08:43;;;;;;;151.10;16.30;;;3.40;99.90;;;;;;2047652;29;20186;-62
2021/01/31 02:09:48;;;;;;;100.28;10.52;;;3.40;99.90;;;;;;2047877;29;20261;-63
2021/01/31 02:10:49;;;;;;;89.78;12.00;;;3.40;99.90;;;;;;2048083;29;20264;-63
2021/01/31 02:11:59;;;;;;;97.07;13.40;;;3.50;99.90;;;;;;2048647;28;20184;-63
2021/01/31 02:13:02;;;;;;;41.65;7.13;;;3.50;99.90;;;;;;2049499;29;20183;-63
2021/01/31 02:14:09;;;;;;;100.25;12.18;;;3.60;99.90;;;;;;2049061;29;20181;-64
2021/01/31 02:15:13;;;;;;;27.83;5.97;;;3.50;99.90;;;;;;2049611;29;20224;-63
2021/01/31 02:16:36;;;;;;;28.95;7.10;;;3.50;99.90;;;;;;2057138;28;20176;-63
2021/01/31 02:18:00;;;;;;;116.22;9.60;;;3.50;99.90;;;;;;2054568;28;20223;-63
2021/01/31 02:19:37;;;;;;;141.45;10.00;;;3.50;99.90;;;;;;2049311;29;20255;-63
2021/01/31 02:21:04;;;;;;;310.25;21.05;;;3.60;99.90;;;;;;2049623;29;20370;-63
2021/01/31 02:22:37;;;;;;;91.35;9.18;;;3.60;99.90;;;;;;2049774;28;20192;-63
2021/01/31 02:24:01;;;;;;;135.98;12.25;;;3.50;99.90;;;;;;2049985;29;20178;-63
2021/01/31 02:25:27;;;;;;;296.42;19.73;;;3.60;99.90;;;;;;2049828;28;20174;-63
2021/01/31 02:26:52;;;;;;;38.10;7.47;;;3.60;99.90;;;;;;2049795;29;20225;-63
2021/01/31 02:27:59;;;;;;;83.53;10.20;;;3.60;99.90;;;;;;2049843;29;20818;-63
2021/01/31 02:29:49;;;;;;;113.75;10.45;;;3.60;99.90;;;;;;2049991;28;20194;-63
2021/01/31 02:31:08;;;;;;;92.57;7.68;;;3.60;99.90;;;;;;2049173;29;20192;-63
2021/01/31 02:32:28;;;;;;;249.93;17.35;;;3.60;99.90;;;;;;2049690;29;20195;-63
2021/01/31 02:33:34;;;;;;;153.57;11.60;;;3.50;99.90;;;;;;2042728;28;20822;-64
2021/01/31 02:35:07;;;;;;;280.17;20.45;;;3.60;99.90;;;;;;2049885;29;20178;-63
2021/01/31 02:36:39;;;;;;;122.38;8.85;;;3.70;99.90;;;;;;2049193;29;20190;-63
2021/01/31 02:38:05;;;;;;;109.90;11.38;;;3.50;99.90;;;;;;2049518;29;20308;-63
2021/01/31 02:39:41;;;;;;;74.55;7.60;;;3.50;99.90;;;;;;2049131;29;20682;-63
2021/01/31 02:41:01;;;;;;;101.60;11.05;;;3.40;99.90;;;;;;2049272;29;20621;-63
2021/01/31 02:42:23;;;;;;;157.00;13.05;;;3.50;99.90;;;;;;2049100;29;20169;-63
2021/01/31 02:43:49;;;;;;;155.40;13.82;;;3.40;99.90;;;;;;2052136;28;20176;-63
2021/01/31 02:45:35;;;;;;;36.38;5.18;;;3.50;99.90;;;;;;2049338;29;20237;-63
2021/01/31 02:46:52;;;;;;;111.05;12.02;;;3.30;99.90;;;;;;2047189;29;20629;-63
2021/01/31 02:48:16;;;;;;;102.05;7.93;;;3.40;99.90;;;;;;2043485;29;20881;-62
2021/01/31 02:49:30;;;;;;;91.38;8.95;;;3.40;99.90;;;;;;2044485;29;20278;-63
2021/01/31 02:50:38;;;;;;;123.97;10.90;;;3.40;99.90;;;;;;2051473;28;20181;-62
2021/01/31 02:52:09;;;;;;;103.65;9.55;;;3.40;99.90;;;;;;2048827;29;20184;-64
2021/01/31 02:53:26;;;;;;;167.05;14.93;;;3.50;99.90;;;;;;2028898;29;20236;-62
2021/01/31 02:54:34;;;;;;;82.53;7.55;;;3.40;99.90;;;;;;2043537;29;20209;-62
2021/01/31 02:55:52;;;;;;;88.05;9.20;;;3.50;99.90;;;;;;2049061;29;20257;-62
2021/01/31 02:57:13;;;;;;;142.38;13.95;;;3.50;99.90;;;;;;2043358;29;20701;-63
2021/01/31 02:58:22;;;;;;;161.82;12.57;;;3.60;99.90;;;;;;2051787;28;20174;-65
2021/01/31 02:59:52;;;;;;;28.92;5.10;;;3.60;99.90;;;;;;2049208;29;20230;-63
2021/01/31 03:01:05;;;;;;;184.80;13.88;;;3.50;99.90;;;;;;2043273;28;20209;-63
2021/01/31 03:02:14;;;;;;;23.00;4.35;;;3.50;99.90;;;;;;2049041;29;20179;-62
2021/01/31 03:03:36;;;;;;;173.18;13.75;;;3.40;99.90;;;;;;2041759;29;20175;-62
2021/01/31 03:04:51;;;;;;;63.95;7.30;;;3.40;99.90;;;;;;2049270;29;20167;-63
2021/01/31 03:05:55;;;;;;;153.82;10.15;;;3.50;99.90;;;;;;2049029;29;20691;-62
2021/01/31 03:07:05;;;;;;;185.10;14.38;;;3.50;99.90;;;;;;2041529;29;20189;-61
2021/01/31 03:08:30;;;;;;;126.45;10.27;;;3.50;99.90;;;;;;2042341;29;20267;-62
2021/01/31 03:09:48;;;;;;;169.75;13.00;;;3.50;99.90;;;;;;2044281;29;20171;-62
2021/01/31 03:10:55;;;;;;;224.75;16.65;;;3.50;99.90;;;;;;2043054;29;20171;-62
2021/01/31 03:12:14;;;;;;;145.57;11.85;;;3.50;99.90;;;;;;2049042;29;20254;-62
2021/01/31 03:13:36;;;;;;;111.82;10.02;;;3.60;99.90;;;;;;2049774;29;20173;-62
2021/01/31 03:14:52;;;;;;;296.52;18.40;;;3.60;99.90;;;;;;2049454;28;20175;-63
2021/01/31 03:16:07;;;;;;;79.03;9.15;;;3.50;99.90;;;;;;2049112;29;20171;-63
2021/01/31 03:17:35;;;;;;;107.50;9.65;;;3.50;99.90;;;;;;2050897;28;20203;-63
2021/01/31 03:18:55;;;;;;;246.68;17.48;;;3.50;99.90;;;;;;2049117;29;20221;-62
2021/01/31 03:20:11;;;;;;;125.40;11.70;;;3.50;99.90;;;;;;2056657;28;20185;-62
2021/01/31 03:21:20;;;;;;;154.40;14.52;;;3.50;99.90;;;;;;2056289;28;20198;-62
2021/01/31 03:22:28;;;;;;;214.52;17.13;;;3.50;99.90;;;;;;2057955;28;20182;-63
2021/01/31 03:23:39;;;;;;;188.38;16.17;;;3.50;99.90;;;;;;2056674;28;20535;-62
2021/01/31 03:24:45;;;;;;;243.90;19.98;;;3.50;99.90;;;;;;2050239;28;20170;-62
2021/01/31 03:25:51;;;;;;;65.78;7.85;;;3.60;99.90;;;;;;2049797;28;20215;-63
2021/01/31 03:27:22;;;;;;;92.00;10.63;;;3.60;99.90;;;;;;2056871;28;20234;-63
2021/01/31 03:28:23;;;;;;;66.50;8.90;;;3.60;99.90;;;;;;2052845;28;20188;-63
2021/01/31 03:29:24;;;;;;;54.60;7.33;;;3.60;99.90;;;;;;2056859;28;20176;-63
2021/01/31 03:30:25;;;;;;;99.32;10.98;;;3.50;99.90;;;;;;2056625;28;20200;-62
2021/01/31 03:31:30;;;;;;;111.47;10.70;;;3.50;99.90;;;;;;2056204;28;20190;-62
2021/01/31 03:32:44;;;;;;;176.10;15.23;;;3.50;99.90;;;;;;2056848;28;20691;-62
2021/01/31 03:33:54;;;;;;;125.07;10.60;;;3.50;99.90;;;;;;2050767;28;20688;-63
2021/01/31 03:35:07;;;;;;;195.30;15.13;;;3.50;99.90;;;;;;2050057;28;20223;-62
2021/01/31 03:36:09;;;;;;;66.18;7.65;;;3.40;99.90;;;;;;2058360;28;20284;-63
2021/01/31 03:37:12;;;;;;;92.35;10.40;;;3.50;99.90;;;;;;2056710;28;20184;-63
2021/01/31 03:38:23;;;;;;;119.03;9.68;;;3.30;99.90;;;;;;2056673;28;20188;-63
2021/01/31 03:39:26;;;;;;;70.20;6.43;;;3.30;99.90;;;;;;2057425;28;20169;-63
2021/01/31 03:40:28;;;;;;;95.13;8.32;;;3.30;99.90;;;;;;2057339;28;20574;-62
2021/01/31 03:41:31;;;;;;;77.13;7.80;;;3.30;99.90;;;;;;2056126;28;20193;-62
2021/01/31 03:42:31;;;;;;;186.32;15.02;;;3.40;99.90;;;;;;2056746;28;20188;-63
2021/01/31 03:43:32;;;;;;;142.47;15.57;;;3.40;99.90;;;;;;2064799;28;20306;-62
2021/01/31 03:44:42;;;;;;;126.68;13.65;;;3.40;99.90;;;;;;2057228;28;20532;-62
2021/01/31 03:45:51;;;;;;;95.30;11.73;;;3.40;99.90;;;;;;2056848;28;20263;-63
2021/01/31 03:47:07;;;;;;;68.50;10.00;;;3.30;99.90;;;;;;2056635;28;20177;-63
2021/01/31 03:48:23;;;;;;;39.65;9.20;;;3.20;99.90;;;;;;2056830;28;20195;-63
2021/01/31 03:49:42;;;;;;;40.00;7.78;;;3.30;99.90;;;;;;2057012;28;20589;-62
2021/01/31 03:50:43;;;;;;;67.00;9.88;;;3.30;99.90;;;;;;2057012;28;20656;-63
2021/01/31 03:51:44;;;;;;;73.78;9.40;;;3.30;99.90;;;;;;2056884;28;20176;-66
2021/01/31 03:52:45;;;;;;;59.83;9.93;;;3.30;99.90;;;;;;2057076;28;20594;-62
2021/01/31 03:53:46;;;;;;;88.67;11.47;;;3.30;99.90;;;;;;2056720;28;20264;-63
2021/01/31 03:54:47;;;;;;;80.75;14.18;;;3.30;99.90;;;;;;2056585;28;20523;-63
2021/01/31 03:55:48;;;;;;;35.17;7.85;;;3.30;99.90;;;;;;2057400;28;20181;-63
2021/01/31 03:56:59;;;;;;;24.40;7.45;;;3.30;99.90;;;;;;2057051;28;20197;-63
2021/01/31 03:58:07;;;;;;;31.55;9.32;;;3.20;99.90;;;;;;2056660;28;20280;-63
2021/01/31 03:59:09;;;;;;;17.98;6.43;;;3.20;99.90;;;;;;2049547;28;20216;-63
2021/01/31 04:00:15;;;;;;;21.65;6.95;;;3.20;99.90;;;;;;2056618;28;20650;-63
2021/01/31 04:01:18;;;;;;;19.33;8.02;;;3.20;99.90;;;;;;2056610;28;20320;-63
2021/01/31 04:02:25;;;;;;;19.20;8.27;;;3.20;99.90;;;;;;2056651;28;20577;-63
2021/01/31 04:03:40;;;;;;;22.33;9.45;;;3.30;99.90;;;;;;2057406;28;20715;-63
2021/01/31 04:04:47;;;;;;;14.95;6.75;;;3.40;99.90;;;;;;2056440;28;20172;-63
2021/01/31 04:06:11;;;;;;;25.38;8.80;;;3.40;99.90;;;;;;2049537;28;20224;-63
2021/01/31 04:07:18;;;;;;;25.65;10.18;;;3.50;99.90;;;;;;2051323;28;20215;-63
2021/01/31 04:08:19;;;;;;;16.15;7.65;;;3.50;99.90;;;;;;2049293;28;20211;-63
2021/01/31 04:09:20;;;;;;;12.33;6.23;;;3.40;99.90;;;;;;2056511;28;20186;-63
2021/01/31 04:10:22;;;;;;;14.95;6.45;;;3.30;99.90;;;;;;2056677;28;20178;-63
2021/01/31 04:11:39;;;;;;;19.45;6.97;;;3.30;99.90;;;;;;2048093;28;20216;-63
2021/01/31 04:12:46;;;;;;;20.23;7.47;;;3.30;99.90;;;;;;2056754;28;20204;-63
2021/01/31 04:13:47;;;;;;;15.40;5.95;;;3.30;99.90;;;;;;2055967;28;20180;-62
2021/01/31 04:15:07;;;;;;;16.03;6.20;;;3.40;99.90;;;;;;2056527;28;20406;-63
2021/01/31 04:16:08;;;;;;;26.27;8.27;;;3.30;99.90;;;;;;2056548;28;20180;-63
2021/01/31 04:17:08;;;;;;;18.63;6.80;;;3.40;99.90;;;;;;2056629;28;20244;-66
2021/01/31 04:18:10;;;;;;;11.80;5.07;;;3.50;99.90;;;;;;2064676;28;20183;-63
2021/01/31 04:19:13;;;;;;;11.48;3.90;;;3.40;99.90;;;;;;2064069;28;20184;-63
2021/01/31 04:20:14;;;;;;;11.55;4.32;;;3.30;99.90;;;;;;2056997;28;20197;-62
2021/01/31 04:21:14;;;;;;;11.83;4.17;;;3.20;99.90;;;;;;2056420;28;20180;-62
2021/01/31 04:22:15;;;;;;;14.77;4.83;;;3.20;99.90;;;;;;2057178;28;20572;-62
2021/01/31 04:23:17;;;;;;;11.57;3.97;;;3.20;99.90;;;;;;2057087;28;20199;-62
2021/01/31 04:24:17;;;;;;;13.13;3.35;;;3.20;99.90;;;;;;2056824;28;20190;-62
2021/01/31 04:25:18;;;;;;;26.83;6.13;;;3.20;99.90;;;;;;2057221;28;20695;-62
2021/01/31 04:26:19;;;;;;;14.97;6.40;;;3.20;99.90;;;;;;2057306;28;20209;-62
2021/01/31 04:27:19;;;;;;;21.20;7.40;;;3.20;99.90;;;;;;2057236;28;20202;-63
2021/01/31 04:28:24;;;;;;;20.73;7.17;;;3.30;99.90;;;;;;2057234;28;20281;-62
2021/01/31 04:29:25;;;;;;;32.45;8.32;;;3.30;99.90;;;;;;2057076;28;20211;-62
2021/01/31 04:30:26;;;;;;;23.05;6.85;;;3.30;99.90;;;;;;2056906;28;20204;-62
2021/01/31 04:31:28;;;;;;;39.03;8.70;;;3.20;99.90;;;;;;2056512;28;20568;-64
2021/01/31 04:32:29;;;;;;;45.38;8.45;;;3.30;99.90;;;;;;2056847;28;20193;-63
2021/01/31 04:33:30;;;;;;;53.03;11.40;;;3.30;99.90;;;;;;2057112;28;20196;-63
2021/01/31 04:34:31;;;;;;;64.17;10.33;;;3.20;99.90;;;;;;2056969;28;20185;-63
2021/01/31 04:35:31;;;;;;;48.30;9.80;;;3.30;99.90;;;;;;2056920;28;20434;-63
2021/01/31 04:36:32;;;;;;;83.33;12.47;;;3.30;99.90;;;;;;2056336;28;20188;-62
2021/01/31 04:37:33;;;;;;;80.70;12.93;;;3.40;99.90;;;;;;2056329;28;20225;-62
2021/01/31 04:38:34;;;;;;;25.83;7.32;;;3.40;99.90;;;;;;2064195;28;20235;-63
2021/01/31 04:39:35;;;;;;;39.47;8.37;;;3.40;99.90;;;;;;2057048;28;20565;-62
2021/01/31 04:40:36;;;;;;;23.10;6.97;;;3.40;99.90;;;;;;2056918;28;20184;-62
2021/01/31 04:41:41;;;;;;;33.60;7.88;;;3.40;99.90;;;;;;2056565;28;20632;-62
2021/01/31 04:42:42;;;;;;;43.30;8.20;;;3.40;99.90;;;;;;2056310;28;20191;-63
2021/01/31 04:43:43;;;;;;;38.67;8.87;;;3.30;99.90;;;;;;2056559;28;20268;-63
2021/01/31 04:44:44;;;;;;;54.95;10.27;;;3.30;99.90;;;;;;2056888;28;20181;-62
2021/01/31 04:45:46;;;;;;;20.30;6.13;;;3.40;99.90;;;;;;2057071;28;20176;-63
2021/01/31 04:47:04;;;;;;;27.75;5.35;;;3.30;99.90;;;;;;2056176;28;20213;-63
2021/01/31 04:48:22;;;;;;;16.80;5.53;;;3.30;99.90;;;;;;2058992;28;20192;-63
2021/01/31 04:50:06;;;;;;;18.05;5.40;;;3.20;99.90;;;;;;2056396;28;20268;-63
2021/01/31 04:51:10;;;;;;;5.68;2.67;;;3.30;99.90;;;;;;2056048;28;20270;-63
2021/01/31 04:52:29;;;;;;;14.02;3.83;;;3.10;99.90;;;;;;2057086;28;20213;-62
2021/01/31 04:53:49;;;;;;;23.08;5.45;;;3.10;99.90;;;;;;2057011;28;20172;-63
2021/01/31 04:55:10;;;;;;;22.23;5.53;;;3.10;99.90;;;;;;2056301;28;20679;-63
2021/01/31 04:56:35;;;;;;;17.17;5.20;;;3.20;99.90;;;;;;2059106;28;20236;-63
2021/01/31 04:58:25;;;;;;;13.60;4.25;;;3.30;99.90;;;;;;2056090;28;20298;-63
2021/01/31 04:59:35;;;;;;;11.77;3.10;;;3.30;99.90;;;;;;2030370;29;20193;-63
2021/01/31 05:00:45;;;;;;;14.10;3.15;;;3.30;99.90;;;;;;2032161;29;20217;-63
2021/01/31 05:01:45;;;;;;;10.77;3.13;;;3.30;99.90;;;;;;2023790;29;20172;-63
2021/01/31 05:02:52;;;;;;;10.43;3.13;;;3.20;99.90;;;;;;2024141;29;20227;-63
2021/01/31 05:04:02;;;;;;;9.00;2.80;;;3.30;99.90;;;;;;2024395;29;20570;-63
2021/01/31 05:05:15;;;;;;;19.83;4.20;;;3.30;99.90;;;;;;2038921;28;20786;-63
2021/01/31 05:06:18;;;;;;;17.38;3.78;;;3.30;99.90;;;;;;2041813;29;20179;-63
2021/01/31 05:07:36;;;;;;;9.82;2.95;;;3.30;99.90;;;;;;2048222;28;20222;-63
2021/01/31 05:08:38;;;;;;;12.27;2.70;;;3.40;99.90;;;;;;2056180;28;20298;-63
2021/01/31 05:09:38;;;;;;;11.95;3.67;;;3.30;99.90;;;;;;2056104;28;20193;-63
2021/01/31 05:10:39;;;;;;;12.57;3.70;;;3.30;99.90;;;;;;2064322;28;20701;-63
2021/01/31 05:11:57;;;;;;;14.40;2.87;;;3.30;99.90;;;;;;2056079;28;20250;-63
2021/01/31 05:12:57;;;;;;;13.93;3.22;;;3.30;99.90;;;;;;2056156;28;20734;-63
2021/01/31 05:14:10;;;;;;;22.27;5.13;;;3.20;99.90;;;;;;2056291;28;20284;-63
2021/01/31 05:15:27;;;;;;;31.35;5.40;;;3.30;99.90;;;;;;2064289;28;20171;-63
2021/01/31 05:16:27;;;;;;;37.83;5.32;;;3.20;99.90;;;;;;2062234;28;20163;-63
2021/01/31 05:17:29;;;;;;;56.20;6.73;;;3.20;99.90;;;;;;2064106;28;20203;-64
2021/01/31 05:18:33;;;;;;;37.20;4.60;;;3.20;99.90;;;;;;2063925;28;20191;-63
2021/01/31 05:19:36;;;;;;;23.35;4.93;;;3.20;99.90;;;;;;2064286;28;20231;-63
2021/01/31 05:20:37;;;;;;;28.75;5.10;;;3.20;99.90;;;;;;2056188;28;20756;-63
2021/01/31 05:21:38;;;;;;;35.17;6.32;;;3.20;99.90;;;;;;2055845;28;20196;-63
2021/01/31 05:22:48;;;;;;;32.47;5.13;;;3.20;99.90;;;;;;2063992;28;20594;-63
2021/01/31 05:23:57;;;;;;;25.88;4.25;;;3.20;99.90;;;;;;2056138;28;20862;-63
2021/01/31 05:24:58;;;;;;;30.95;5.50;;;3.20;99.90;;;;;;2057221;28;20270;-63
2021/01/31 05:25:58;;;;;;;21.30;4.40;;;3.20;99.90;;;;;;2056154;28;20220;-63
2021/01/31 05:27:02;;;;;;;10.00;2.97;;;3.30;99.90;;;;;;2055978;28;20943;-63
2021/01/31 05:28:06;;;;;;;14.10;3.05;;;3.30;99.90;;;;;;2063746;28;20295;-63
2021/01/31 05:29:16;;;;;;;4.93;1.75;;;3.20;99.90;;;;;;2055841;28;20655;-63
2021/01/31 05:30:17;;;;;;;10.70;2.75;;;3.20;99.90;;;;;;2049511;28;20180;-63
2021/01/31 05:31:19;;;;;;;4.13;1.67;;;3.20;99.90;;;;;;2055539;28;20986;-63
2021/01/31 05:32:20;;;;;;;5.10;1.83;;;3.10;99.90;;;;;;2056720;28;20181;-62
2021/01/31 05:33:24;;;;;;;5.57;2.10;;;3.10;99.90;;;;;;2056685;28;20184;-63
2021/01/31 05:34:41;;;;;;;5.22;2.08;;;3.10;99.90;;;;;;2056019;28;20221;-63
2021/01/31 05:35:48;;;;;;;11.73;2.63;;;3.10;99.90;;;;;;2056290;28;20227;-63
2021/01/31 05:37:07;;;;;;;8.80;2.88;;;3.10;99.90;;;;;;2056620;28;20275;-62
2021/01/31 05:38:10;;;;;;;6.35;2.42;;;3.10;99.90;;;;;;2064225;28;20259;-64
2021/01/31 05:39:11;;;;;;;8.35;2.55;;;3.10;99.90;;;;;;2074628;23;20216;-70
2021/01/31 05:40:29;;;;;;;5.70;1.73;;;3.10;99.90;;;;;;2071678;28;20182;-70
2021/01/31 05:41:48;;;;;;;5.88;1.98;;;3.10;99.90;;;;;;2072094;28;20595;-67
2021/01/31 05:42:49;;;;;;;7.43;2.15;;;3.10;99.90;;;;;;2072781;28;20192;-68
2021/01/31 05:44:04;;;;;;;4.77;2.13;;;3.10;99.90;;;;;;2072086;28;20573;-67
2021/01/31 05:45:13;;;;;;;7.78;2.00;;;3.10;99.90;;;;;;2071991;28;20675;-67
2021/01/31 05:46:17;;;;;;;6.25;2.10;;;3.10;99.90;;;;;;2065317;28;20269;-68
2021/01/31 05:47:24;;;;;;;7.05;1.95;;;3.10;99.90;;;;;;2072874;28;20302;-68
2021/01/31 05:48:31;;;;;;;4.03;1.88;;;3.10;99.90;;;;;;2082008;28;20214;-68
2021/01/31 05:49:47;;;;;;;2.97;1.50;;;3.10;99.90;;;;;;2081047;28;20712;-68